Ayr, North Dakota
Current Conditions -  °F | °C
As of 9:53 PM on Sunday 25 Jan 2015 (Local Time) from KFAR Reporting Station
Overcast Overcast  
Wind Chill: 16°   Ceiling: 1500
Heat Index: 28°   Visibility: 10mi
Dew Point: 21°   Wind: 16mph
Humidity: 75%   Direction: 170°S
Pressure: 29.85"   Gusts: NA
Location:  47.04°N, 97.49°W
Report Text: KFAR 260353Z AUTO 17014KT 10SM BKN015 OVC024 M02/M06 A2985 RMK AO2 SLP123 T10221061 TSNO
Loading
Personal Weather Stations






























Interactive Weather Map New forecast layout! Learn more

10-Day Weather Forecast

Advertisements
Track Severe Weather on mobile